Terminal Aerodrome Forecast
Issued by NWS

Home | Current Version | Previous Version | Text Only | Print | Product List | Glossary On
Versions: 1 2 3 4 5 6 7 8 9 10 11 12 13 14 15
000
FTUS46 KSTO 290500
TAFSCK
TAF
KSCK 290535Z 2906/3006 VRB03KT 4SM BR SKC
     FM291100 VRB02KT 2SM BR FEW003
      TEMPO 2912/2915 1/4SM FG OVC001
     FM291900 30005KT P6SM SKC=

USA.gov is the U.S. government's official web portal to all federal, state and local government web resources and services.